sensor_id;sensor_type;location;lat;lon;timestamp;P1;durP1;ratioP1;P2;durP2;ratioP2
18793;SDS011;29610;49.022;12.114;2022-11-04T00:02:02;26.03;;;14.70;;
18793;SDS011;29610;49.022;12.114;2022-11-04T00:04:31;25.33;;;14.83;;
18793;SDS011;29610;49.022;12.114;2022-11-04T00:07:00;36.40;;;14.63;;
18793;SDS011;29610;49.022;12.114;2022-11-04T00:09:49;26.30;;;13.30;;
18793;SDS011;29610;49.022;12.114;2022-11-04T00:12:17;26.07;;;13.50;;
18793;SDS011;29610;49.022;12.114;2022-11-04T00:14:51;26.10;;;14.57;;
18793;SDS011;29610;49.022;12.114;2022-11-04T00:17:21;29.97;;;15.63;;
18793;SDS011;29610;49.022;12.114;2022-11-04T00:19:49;26.53;;;15.00;;
18793;SDS011;29610;49.022;12.114;2022-11-04T00:22:37;33.00;;;15.20;;
18793;SDS011;29610;49.022;12.114;2022-11-04T00:25:26;32.50;;;15.40;;
18793;SDS011;29610;49.022;12.114;2022-11-04T00:28:13;29.13;;;14.77;;
18793;SDS011;29610;49.022;12.114;2022-11-04T00:31:02;33.03;;;15.43;;
18793;SDS011;29610;49.022;12.114;2022-11-04T00:33:48;27.90;;;15.53;;
18793;SDS011;29610;49.022;12.114;2022-11-04T00:36:19;26.23;;;14.83;;
18793;SDS011;29610;49.022;12.114;2022-11-04T00:38:50;32.80;;;14.93;;
18793;SDS011;29610;49.022;12.114;2022-11-04T00:41:19;24.87;;;14.53;;
18793;SDS011;29610;49.022;12.114;2022-11-04T00:43:55;25.97;;;13.70;;
18793;SDS011;29610;49.022;12.114;2022-11-04T00:46:25;27.63;;;15.07;;
18793;SDS011;29610;49.022;12.114;2022-11-04T00:48:57;25.07;;;14.33;;
18793;SDS011;29610;49.022;12.114;2022-11-04T00:51:26;24.87;;;13.87;;
18793;SDS011;29610;49.022;12.114;2022-11-04T00:53:55;28.30;;;15.13;;
18793;SDS011;29610;49.022;12.114;2022-11-04T00:56:24;26.57;;;14.47;;
18793;SDS011;29610;49.022;12.114;2022-11-04T00:58:53;21.00;;;13.30;;
18793;SDS011;29610;49.022;12.114;2022-11-04T01:01:21;23.03;;;12.60;;
18793;SDS011;29610;49.022;12.114;2022-11-04T01:03:51;26.73;;;14.30;;
18793;SDS011;29610;49.022;12.114;2022-11-04T01:06:23;26.90;;;13.90;;
18793;SDS011;29610;49.022;12.114;2022-11-04T01:08:57;31.80;;;13.60;;
18793;SDS011;29610;49.022;12.114;2022-11-04T01:11:28;25.07;;;13.60;;
18793;SDS011;29610;49.022;12.114;2022-11-04T01:13:57;25.30;;;13.60;;
18793;SDS011;29610;49.022;12.114;2022-11-04T01:16:26;30.00;;;14.30;;
18793;SDS011;29610;49.022;12.114;2022-11-04T01:18:55;28.70;;;14.10;;
18793;SDS011;29610;49.022;12.114;2022-11-04T01:21:26;23.90;;;14.17;;
18793;SDS011;29610;49.022;12.114;2022-11-04T01:23:55;29.60;;;14.63;;
18793;SDS011;29610;49.022;12.114;2022-11-04T01:26:24;30.37;;;14.67;;
18793;SDS011;29610;49.022;12.114;2022-11-04T01:28:54;27.80;;;14.67;;
18793;SDS011;29610;49.022;12.114;2022-11-04T01:31:26;34.80;;;15.80;;
18793;SDS011;29610;49.022;12.114;2022-11-04T01:33:56;41.33;;;15.00;;
18793;SDS011;29610;49.022;12.114;2022-11-04T01:36:27;32.77;;;14.30;;
18793;SDS011;29610;49.022;12.114;2022-11-04T01:38:56;30.87;;;15.33;;
18793;SDS011;29610;49.022;12.114;2022-11-04T01:41:25;29.30;;;13.57;;
18793;SDS011;29610;49.022;12.114;2022-11-04T01:43:57;29.50;;;14.33;;
18793;SDS011;29610;49.022;12.114;2022-11-04T01:46:33;25.57;;;14.60;;
18793;SDS011;29610;49.022;12.114;2022-11-04T01:49:22;28.90;;;15.33;;
18793;SDS011;29610;49.022;12.114;2022-11-04T01:52:00;36.13;;;16.00;;
18793;SDS011;29610;49.022;12.114;2022-11-04T01:54:36;26.17;;;15.07;;
18793;SDS011;29610;49.022;12.114;2022-11-04T01:57:07;47.60;;;16.67;;
18793;SDS011;29610;49.022;12.114;2022-11-04T01:59:40;35.60;;;16.50;;
18793;SDS011;29610;49.022;12.114;2022-11-04T02:02:09;36.40;;;17.10;;
18793;SDS011;29610;49.022;12.114;2022-11-04T02:04:38;36.27;;;19.20;;
18793;SDS011;29610;49.022;12.114;2022-11-04T02:07:10;39.73;;;16.43;;
18793;SDS011;29610;49.022;12.114;2022-11-04T02:09:39;34.17;;;16.13;;
18793;SDS011;29610;49.022;12.114;2022-11-04T02:12:10;37.10;;;17.30;;
18793;SDS011;29610;49.022;12.114;2022-11-04T02:14:57;35.33;;;16.67;;
18793;SDS011;29610;49.022;12.114;2022-11-04T02:17:29;36.33;;;16.37;;
18793;SDS011;29610;49.022;12.114;2022-11-04T02:20:32;34.13;;;16.90;;
18793;SDS011;29610;49.022;12.114;2022-11-04T02:26:55;34.27;;;16.97;;
18793;SDS011;29610;49.022;12.114;2022-11-04T02:29:49;37.00;;;17.77;;
18793;SDS011;29610;49.022;12.114;2022-11-04T02:32:36;32.87;;;17.57;;
18793;SDS011;29610;49.022;12.114;2022-11-04T02:35:24;36.40;;;17.70;;
18793;SDS011;29610;49.022;12.114;2022-11-04T02:38:09;31.50;;;17.70;;
18793;SDS011;29610;49.022;12.114;2022-11-04T02:40:50;36.90;;;16.83;;
18793;SDS011;29610;49.022;12.114;2022-11-04T02:43:32;30.30;;;16.80;;
18793;SDS011;29610;49.022;12.114;2022-11-04T02:46:17;36.10;;;16.50;;
18793;SDS011;29610;49.022;12.114;2022-11-04T02:48:54;34.50;;;14.80;;
18793;SDS011;29610;49.022;12.114;2022-11-04T02:51:30;31.57;;;15.13;;
18793;SDS011;29610;49.022;12.114;2022-11-04T02:54:06;40.63;;;17.20;;
18793;SDS011;29610;49.022;12.114;2022-11-04T02:56:42;32.50;;;15.70;;
18793;SDS011;29610;49.022;12.114;2022-11-04T02:59:18;32.10;;;13.73;;
18793;SDS011;29610;49.022;12.114;2022-11-04T03:01:56;33.40;;;14.67;;
18793;SDS011;29610;49.022;12.114;2022-11-04T03:04:32;32.80;;;13.57;;
18793;SDS011;29610;49.022;12.114;2022-11-04T03:07:06;28.57;;;13.40;;
18793;SDS011;29610;49.022;12.114;2022-11-04T03:09:40;27.57;;;13.40;;
18793;SDS011;29610;49.022;12.114;2022-11-04T03:12:15;26.47;;;13.43;;
18793;SDS011;29610;49.022;12.114;2022-11-04T03:14:50;31.57;;;14.03;;
18793;SDS011;29610;49.022;12.114;2022-11-04T03:17:31;27.17;;;11.03;;
18793;SDS011;29610;49.022;12.114;2022-11-04T03:20:07;25.50;;;11.93;;
18793;SDS011;29610;49.022;12.114;2022-11-04T03:22:44;25.43;;;11.23;;
18793;SDS011;29610;49.022;12.114;2022-11-04T03:25:13;28.07;;;10.47;;
18793;SDS011;29610;49.022;12.114;2022-11-04T03:27:44;23.27;;;11.10;;
18793;SDS011;29610;49.022;12.114;2022-11-04T03:30:22;23.60;;;11.23;;
18793;SDS011;29610;49.022;12.114;2022-11-04T03:32:58;25.23;;;10.70;;
18793;SDS011;29610;49.022;12.114;2022-11-04T03:35:34;19.70;;;9.67;;
18793;SDS011;29610;49.022;12.114;2022-11-04T03:38:03;23.70;;;10.60;;
18793;SDS011;29610;49.022;12.114;2022-11-04T03:40:32;22.37;;;10.10;;
18793;SDS011;29610;49.022;12.114;2022-11-04T03:43:02;20.77;;;9.93;;
18793;SDS011;29610;49.022;12.114;2022-11-04T03:45:37;20.60;;;9.27;;
18793;SDS011;29610;49.022;12.114;2022-11-04T03:48:10;19.77;;;9.30;;
18793;SDS011;29610;49.022;12.114;2022-11-04T03:50:40;20.10;;;9.23;;
18793;SDS011;29610;49.022;12.114;2022-11-04T03:53:13;20.97;;;9.10;;
18793;SDS011;29610;49.022;12.114;2022-11-04T03:55:54;19.80;;;9.60;;
18793;SDS011;29610;49.022;12.114;2022-11-04T03:59:04;27.40;;;9.57;;
18793;SDS011;29610;49.022;12.114;2022-11-04T04:01:51;22.60;;;8.97;;
18793;SDS011;29610;49.022;12.114;2022-11-04T04:04:26;22.23;;;8.40;;
18793;SDS011;29610;49.022;12.114;2022-11-04T04:07:00;18.93;;;8.07;;
18793;SDS011;29610;49.022;12.114;2022-11-04T04:09:38;20.27;;;8.20;;
18793;SDS011;29610;49.022;12.114;2022-11-04T04:12:12;20.17;;;8.47;;
18793;SDS011;29610;49.022;12.114;2022-11-04T04:14:53;19.40;;;9.90;;
18793;SDS011;29610;49.022;12.114;2022-11-04T04:17:31;19.37;;;8.77;;
18793;SDS011;29610;49.022;12.114;2022-11-04T04:20:08;17.80;;;8.43;;
18793;SDS011;29610;49.022;12.114;2022-11-04T04:22:42;17.47;;;8.00;;
18793;SDS011;29610;49.022;12.114;2022-11-04T04:25:18;20.20;;;8.80;;
18793;SDS011;29610;49.022;12.114;2022-11-04T04:28:09;21.53;;;8.13;;
18793;SDS011;29610;49.022;12.114;2022-11-04T04:30:39;19.10;;;7.50;;
18793;SDS011;29610;49.022;12.114;2022-11-04T04:33:11;14.07;;;7.17;;
18793;SDS011;29610;49.022;12.114;2022-11-04T04:35:46;19.67;;;8.30;;
18793;SDS011;29610;49.022;12.114;2022-11-04T04:38:23;18.83;;;8.03;;
18793;SDS011;29610;49.022;12.114;2022-11-04T04:41:12;17.67;;;8.40;;
18793;SDS011;29610;49.022;12.114;2022-11-04T04:44:05;15.70;;;7.40;;
18793;SDS011;29610;49.022;12.114;2022-11-04T04:47:02;17.10;;;8.80;;
18793;SDS011;29610;49.022;12.114;2022-11-04T04:49:32;19.57;;;8.60;;
18793;SDS011;29610;49.022;12.114;2022-11-04T04:52:03;20.40;;;8.83;;
18793;SDS011;29610;49.022;12.114;2022-11-04T04:54:34;19.23;;;8.03;;
18793;SDS011;29610;49.022;12.114;2022-11-04T04:57:03;18.67;;;8.77;;
18793;SDS011;29610;49.022;12.114;2022-11-04T04:59:32;20.47;;;8.67;;
18793;SDS011;29610;49.022;12.114;2022-11-04T05:02:00;19.67;;;8.03;;
18793;SDS011;29610;49.022;12.114;2022-11-04T05:04:29;19.90;;;9.00;;
18793;SDS011;29610;49.022;12.114;2022-11-04T05:06:58;18.27;;;9.30;;
18793;SDS011;29610;49.022;12.114;2022-11-04T05:09:28;16.67;;;8.40;;
18793;SDS011;29610;49.022;12.114;2022-11-04T05:11:56;24.40;;;9.30;;
18793;SDS011;29610;49.022;12.114;2022-11-04T05:14:25;18.60;;;8.40;;
18793;SDS011;29610;49.022;12.114;2022-11-04T05:16:54;22.43;;;8.87;;
18793;SDS011;29610;49.022;12.114;2022-11-04T05:19:22;21.07;;;9.87;;
18793;SDS011;29610;49.022;12.114;2022-11-04T05:21:51;19.70;;;8.87;;
18793;SDS011;29610;49.022;12.114;2022-11-04T05:24:20;20.80;;;9.30;;
18793;SDS011;29610;49.022;12.114;2022-11-04T05:26:51;22.80;;;10.03;;
18793;SDS011;29610;49.022;12.114;2022-11-04T05:29:20;18.40;;;9.57;;
18793;SDS011;29610;49.022;12.114;2022-11-04T05:31:49;18.83;;;8.93;;
18793;SDS011;29610;49.022;12.114;2022-11-04T05:34:17;22.73;;;9.97;;
18793;SDS011;29610;49.022;12.114;2022-11-04T05:36:46;22.43;;;9.47;;
18793;SDS011;29610;49.022;12.114;2022-11-04T05:39:14;18.50;;;9.07;;
18793;SDS011;29610;49.022;12.114;2022-11-04T05:41:43;18.83;;;9.53;;
18793;SDS011;29610;49.022;12.114;2022-11-04T05:44:13;20.83;;;9.80;;
18793;SDS011;29610;49.022;12.114;2022-11-04T05:46:42;19.97;;;8.50;;
18793;SDS011;29610;49.022;12.114;2022-11-04T05:49:10;23.10;;;10.83;;
18793;SDS011;29610;49.022;12.114;2022-11-04T05:51:40;23.30;;;10.50;;
18793;SDS011;29610;49.022;12.114;2022-11-04T05:54:08;24.67;;;10.67;;
18793;SDS011;29610;49.022;12.114;2022-11-04T05:56:46;24.57;;;11.97;;
18793;SDS011;29610;49.022;12.114;2022-11-04T05:59:51;30.93;;;11.77;;
18793;SDS011;29610;49.022;12.114;2022-11-04T06:03:17;25.97;;;12.07;;
18793;SDS011;29610;49.022;12.114;2022-11-04T06:05:49;31.67;;;14.20;;
18793;SDS011;29610;49.022;12.114;2022-11-04T06:08:18;32.50;;;15.60;;
18793;SDS011;29610;49.022;12.114;2022-11-04T06:10:51;29.90;;;14.30;;
18793;SDS011;29610;49.022;12.114;2022-11-04T06:13:47;31.67;;;15.70;;
18793;SDS011;29610;49.022;12.114;2022-11-04T06:16:44;32.70;;;15.90;;
18793;SDS011;29610;49.022;12.114;2022-11-04T06:19:17;41.57;;;19.00;;
18793;SDS011;29610;49.022;12.114;2022-11-04T06:22:00;40.47;;;18.40;;
18793;SDS011;29610;49.022;12.114;2022-11-04T06:24:51;46.50;;;17.63;;
18793;SDS011;29610;49.022;12.114;2022-11-04T06:27:37;38.90;;;17.57;;
18793;SDS011;29610;49.022;12.114;2022-11-04T06:30:50;33.20;;;16.50;;
18793;SDS011;29610;49.022;12.114;2022-11-04T06:33:40;34.30;;;16.57;;
18793;SDS011;29610;49.022;12.114;2022-11-04T06:36:13;33.77;;;15.93;;
18793;SDS011;29610;49.022;12.114;2022-11-04T06:39:09;34.80;;;16.77;;
18793;SDS011;29610;49.022;12.114;2022-11-04T06:41:47;37.40;;;18.67;;
18793;SDS011;29610;49.022;12.114;2022-11-04T06:44:21;34.13;;;17.53;;
18793;SDS011;29610;49.022;12.114;2022-11-04T06:46:51;39.37;;;19.40;;
18793;SDS011;29610;49.022;12.114;2022-11-04T06:49:20;46.20;;;20.80;;
18793;SDS011;29610;49.022;12.114;2022-11-04T06:51:50;44.90;;;20.07;;
18793;SDS011;29610;49.022;12.114;2022-11-04T06:54:19;39.23;;;18.93;;
18793;SDS011;29610;49.022;12.114;2022-11-04T06:56:47;42.90;;;18.53;;
18793;SDS011;29610;49.022;12.114;2022-11-04T06:59:17;33.60;;;16.70;;
18793;SDS011;29610;49.022;12.114;2022-11-04T07:01:47;30.57;;;14.90;;
18793;SDS011;29610;49.022;12.114;2022-11-04T07:04:18;32.67;;;17.10;;
18793;SDS011;29610;49.022;12.114;2022-11-04T07:06:47;40.17;;;16.43;;
18793;SDS011;29610;49.022;12.114;2022-11-04T07:09:16;37.53;;;17.77;;
18793;SDS011;29610;49.022;12.114;2022-11-04T07:11:44;40.43;;;15.80;;
18793;SDS011;29610;49.022;12.114;2022-11-04T07:14:14;33.17;;;14.77;;
18793;SDS011;29610;49.022;12.114;2022-11-04T07:16:42;22.60;;;9.80;;
18793;SDS011;29610;49.022;12.114;2022-11-04T07:19:11;20.57;;;8.70;;
18793;SDS011;29610;49.022;12.114;2022-11-04T07:21:41;18.57;;;8.57;;
18793;SDS011;29610;49.022;12.114;2022-11-04T07:24:09;20.10;;;8.30;;
18793;SDS011;29610;49.022;12.114;2022-11-04T07:26:38;18.27;;;7.47;;
18793;SDS011;29610;49.022;12.114;2022-11-04T07:29:08;16.70;;;7.67;;
18793;SDS011;29610;49.022;12.114;2022-11-04T07:31:37;21.07;;;5.60;;
18793;SDS011;29610;49.022;12.114;2022-11-04T07:34:05;17.67;;;5.83;;
18793;SDS011;29610;49.022;12.114;2022-11-04T07:36:34;12.80;;;5.57;;
18793;SDS011;29610;49.022;12.114;2022-11-04T07:39:04;14.57;;;5.00;;
18793;SDS011;29610;49.022;12.114;2022-11-04T07:41:34;16.43;;;6.17;;
18793;SDS011;29610;49.022;12.114;2022-11-04T07:44:03;14.80;;;5.83;;
18793;SDS011;29610;49.022;12.114;2022-11-04T07:46:32;14.83;;;5.20;;
18793;SDS011;29610;49.022;12.114;2022-11-04T07:49:00;12.10;;;4.70;;
18793;SDS011;29610;49.022;12.114;2022-11-04T07:51:29;13.50;;;5.63;;
18793;SDS011;29610;49.022;12.114;2022-11-04T07:53:58;14.07;;;5.90;;
18793;SDS011;29610;49.022;12.114;2022-11-04T07:56:29;12.30;;;5.23;;
18793;SDS011;29610;49.022;12.114;2022-11-04T07:58:57;13.03;;;5.07;;
18793;SDS011;29610;49.022;12.114;2022-11-04T08:01:26;11.17;;;4.43;;
18793;SDS011;29610;49.022;12.114;2022-11-04T08:03:54;20.60;;;8.43;;
18793;SDS011;29610;49.022;12.114;2022-11-04T08:06:23;12.93;;;5.03;;
18793;SDS011;29610;49.022;12.114;2022-11-04T08:08:51;12.13;;;4.73;;
18793;SDS011;29610;49.022;12.114;2022-11-04T08:11:21;11.90;;;4.23;;
18793;SDS011;29610;49.022;12.114;2022-11-04T08:13:55;10.07;;;4.40;;
18793;SDS011;29610;49.022;12.114;2022-11-04T08:16:24;18.77;;;4.47;;
18793;SDS011;29610;49.022;12.114;2022-11-04T08:18:59;12.80;;;4.97;;
18793;SDS011;29610;49.022;12.114;2022-11-04T08:21:28;11.90;;;4.90;;
18793;SDS011;29610;49.022;12.114;2022-11-04T08:23:59;16.10;;;4.80;;
18793;SDS011;29610;49.022;12.114;2022-11-04T08:26:30;11.87;;;4.10;;
18793;SDS011;29610;49.022;12.114;2022-11-04T08:29:01;10.40;;;4.30;;
18793;SDS011;29610;49.022;12.114;2022-11-04T08:31:34;12.70;;;4.23;;
18793;SDS011;29610;49.022;12.114;2022-11-04T08:34:02;11.43;;;3.90;;
18793;SDS011;29610;49.022;12.114;2022-11-04T08:36:34;13.60;;;4.50;;
18793;SDS011;29610;49.022;12.114;2022-11-04T08:39:06;10.80;;;3.80;;
18793;SDS011;29610;49.022;12.114;2022-11-04T08:41:37;12.40;;;4.67;;
18793;SDS011;29610;49.022;12.114;2022-11-04T08:44:10;10.30;;;4.30;;
18793;SDS011;29610;49.022;12.114;2022-11-04T08:46:42;11.50;;;3.97;;
18793;SDS011;29610;49.022;12.114;2022-11-04T08:49:12;12.70;;;4.50;;
18793;SDS011;29610;49.022;12.114;2022-11-04T08:51:46;10.20;;;3.93;;
18793;SDS011;29610;49.022;12.114;2022-11-04T08:54:22;10.33;;;3.20;;
18793;SDS011;29610;49.022;12.114;2022-11-04T08:56:51;9.03;;;3.30;;
18793;SDS011;29610;49.022;12.114;2022-11-04T08:59:21;10.07;;;3.70;;
18793;SDS011;29610;49.022;12.114;2022-11-04T09:01:50;10.10;;;3.67;;
18793;SDS011;29610;49.022;12.114;2022-11-04T09:04:19;10.07;;;3.30;;
18793;SDS011;29610;49.022;12.114;2022-11-04T09:06:48;9.50;;;3.20;;
18793;SDS011;29610;49.022;12.114;2022-11-04T09:09:17;10.90;;;3.57;;
18793;SDS011;29610;49.022;12.114;2022-11-04T09:11:46;9.30;;;2.77;;
18793;SDS011;29610;49.022;12.114;2022-11-04T09:14:15;10.53;;;3.43;;
18793;SDS011;29610;49.022;12.114;2022-11-04T09:16:45;9.23;;;2.50;;
18793;SDS011;29610;49.022;12.114;2022-11-04T09:19:14;10.30;;;2.67;;
18793;SDS011;29610;49.022;12.114;2022-11-04T09:21:42;9.93;;;3.60;;
18793;SDS011;29610;49.022;12.114;2022-11-04T09:24:11;23.57;;;4.03;;
18793;SDS011;29610;49.022;12.114;2022-11-04T09:26:39;10.10;;;3.93;;
18793;SDS011;29610;49.022;12.114;2022-11-04T09:29:10;9.50;;;3.43;;
18793;SDS011;29610;49.022;12.114;2022-11-04T09:31:39;14.20;;;3.27;;
18793;SDS011;29610;49.022;12.114;2022-11-04T09:34:10;9.03;;;2.97;;
18793;SDS011;29610;49.022;12.114;2022-11-04T09:36:38;10.20;;;2.57;;
18793;SDS011;29610;49.022;12.114;2022-11-04T09:39:07;10.60;;;2.67;;
18793;SDS011;29610;49.022;12.114;2022-11-04T09:44:56;11.60;;;3.00;;
18793;SDS011;29610;49.022;12.114;2022-11-04T09:47:49;10.10;;;3.57;;
18793;SDS011;29610;49.022;12.114;2022-11-04T09:50:27;9.13;;;3.03;;
18793;SDS011;29610;49.022;12.114;2022-11-04T09:53:08;7.30;;;1.80;;
18793;SDS011;29610;49.022;12.114;2022-11-04T09:55:46;8.83;;;2.30;;
18793;SDS011;29610;49.022;12.114;2022-11-04T09:58:22;14.13;;;2.70;;
18793;SDS011;29610;49.022;12.114;2022-11-04T10:00:52;10.80;;;2.80;;
18793;SDS011;29610;49.022;12.114;2022-11-04T10:03:37;10.77;;;2.57;;
18793;SDS011;29610;49.022;12.114;2022-11-04T10:06:26;10.17;;;2.73;;
18793;SDS011;29610;49.022;12.114;2022-11-04T10:09:14;8.50;;;2.70;;
18793;SDS011;29610;49.022;12.114;2022-11-04T10:12:03;8.67;;;2.70;;
18793;SDS011;29610;49.022;12.114;2022-11-04T10:14:55;8.50;;;2.60;;
18793;SDS011;29610;49.022;12.114;2022-11-04T10:17:50;13.50;;;2.33;;
18793;SDS011;29610;49.022;12.114;2022-11-04T10:20:40;10.17;;;2.57;;
18793;SDS011;29610;49.022;12.114;2022-11-04T10:23:22;12.23;;;2.83;;
18793;SDS011;29610;49.022;12.114;2022-11-04T10:26:00;11.53;;;2.90;;
18793;SDS011;29610;49.022;12.114;2022-11-04T10:28:41;14.43;;;2.97;;
18793;SDS011;29610;49.022;12.114;2022-11-04T10:31:16;13.40;;;2.43;;
18793;SDS011;29610;49.022;12.114;2022-11-04T10:33:46;8.03;;;2.30;;
18793;SDS011;29610;49.022;12.114;2022-11-04T10:36:21;11.17;;;3.63;;
18793;SDS011;29610;49.022;12.114;2022-11-04T10:38:53;9.23;;;3.37;;
18793;SDS011;29610;49.022;12.114;2022-11-04T10:41:25;12.40;;;3.00;;
18793;SDS011;29610;49.022;12.114;2022-11-04T10:44:00;12.60;;;2.80;;
18793;SDS011;29610;49.022;12.114;2022-11-04T10:46:37;9.20;;;2.50;;
18793;SDS011;29610;49.022;12.114;2022-11-04T10:52:46;10.20;;;2.30;;
18793;SDS011;29610;49.022;12.114;2022-11-04T10:55:21;9.90;;;2.23;;
18793;SDS011;29610;49.022;12.114;2022-11-04T10:58:03;8.73;;;2.83;;
18793;SDS011;29610;49.022;12.114;2022-11-04T11:00:46;9.17;;;2.63;;
18793;SDS011;29610;49.022;12.114;2022-11-04T11:03:26;8.90;;;2.40;;
18793;SDS011;29610;49.022;12.114;2022-11-04T11:06:14;12.50;;;3.00;;
18793;SDS011;29610;49.022;12.114;2022-11-04T11:08:54;11.30;;;3.70;;
18793;SDS011;29610;49.022;12.114;2022-11-04T11:11:38;8.00;;;2.40;;
18793;SDS011;29610;49.022;12.114;2022-11-04T11:14:19;7.80;;;2.47;;
18793;SDS011;29610;49.022;12.114;2022-11-04T11:20:17;11.30;;;2.80;;
18793;SDS011;29610;49.022;12.114;2022-11-04T11:22:49;10.47;;;2.67;;
18793;SDS011;29610;49.022;12.114;2022-11-04T11:25:22;8.90;;;3.07;;
18793;SDS011;29610;49.022;12.114;2022-11-04T11:27:57;14.43;;;2.57;;
18793;SDS011;29610;49.022;12.114;2022-11-04T11:30:29;12.93;;;3.73;;
18793;SDS011;29610;49.022;12.114;2022-11-04T11:33:00;12.43;;;3.30;;
18793;SDS011;29610;49.022;12.114;2022-11-04T11:35:35;9.87;;;3.23;;
18793;SDS011;29610;49.022;12.114;2022-11-04T11:38:15;9.10;;;3.37;;
18793;SDS011;29610;49.022;12.114;2022-11-04T11:40:48;9.90;;;3.13;;
18793;SDS011;29610;49.022;12.114;2022-11-04T11:43:42;15.20;;;3.67;;
18793;SDS011;29610;49.022;12.114;2022-11-04T11:46:20;12.87;;;3.53;;
18793;SDS011;29610;49.022;12.114;2022-11-04T11:48:51;9.53;;;2.90;;
18793;SDS011;29610;49.022;12.114;2022-11-04T11:51:27;14.03;;;3.47;;
18793;SDS011;29610;49.022;12.114;2022-11-04T11:54:15;9.87;;;3.20;;
18793;SDS011;29610;49.022;12.114;2022-11-04T11:56:53;11.43;;;3.67;;
18793;SDS011;29610;49.022;12.114;2022-11-04T11:59:43;9.20;;;2.77;;
18793;SDS011;29610;49.022;12.114;2022-11-04T12:02:40;10.30;;;3.60;;
18793;SDS011;29610;49.022;12.114;2022-11-04T12:05:22;11.37;;;3.33;;
18793;SDS011;29610;49.022;12.114;2022-11-04T12:08:27;16.80;;;3.57;;
18793;SDS011;29610;49.022;12.114;2022-11-04T12:11:44;10.10;;;3.77;;
18793;SDS011;29610;49.022;12.114;2022-11-04T12:14:36;11.33;;;3.97;;
18793;SDS011;29610;49.022;12.114;2022-11-04T12:17:24;11.83;;;3.77;;
18793;SDS011;29610;49.022;12.114;2022-11-04T12:20:14;11.73;;;4.70;;
18793;SDS011;29610;49.022;12.114;2022-11-04T12:22:57;14.17;;;4.27;;
18793;SDS011;29610;49.022;12.114;2022-11-04T12:25:36;10.17;;;3.10;;
18793;SDS011;29610;49.022;12.114;2022-11-04T12:28:17;10.73;;;3.30;;
18793;SDS011;29610;49.022;12.114;2022-11-04T12:31:02;10.63;;;3.00;;
18793;SDS011;29610;49.022;12.114;2022-11-04T12:33:51;14.20;;;3.40;;
18793;SDS011;29610;49.022;12.114;2022-11-04T12:36:41;11.30;;;3.50;;
18793;SDS011;29610;49.022;12.114;2022-11-04T12:39:31;9.60;;;3.07;;
18793;SDS011;29610;49.022;12.114;2022-11-04T12:42:16;10.77;;;4.00;;
18793;SDS011;29610;49.022;12.114;2022-11-04T12:45:01;10.17;;;3.23;;
18793;SDS011;29610;49.022;12.114;2022-11-04T12:47:48;12.33;;;4.37;;
18793;SDS011;29610;49.022;12.114;2022-11-04T12:50:22;10.30;;;3.67;;
18793;SDS011;29610;49.022;12.114;2022-11-04T12:53:22;14.90;;;3.50;;
18793;SDS011;29610;49.022;12.114;2022-11-04T12:56:16;15.13;;;3.40;;
18793;SDS011;29610;49.022;12.114;2022-11-04T12:59:00;14.47;;;3.77;;
18793;SDS011;29610;49.022;12.114;2022-11-04T13:01:53;11.27;;;4.37;;
18793;SDS011;29610;49.022;12.114;2022-11-04T13:04:31;12.30;;;4.47;;
18793;SDS011;29610;49.022;12.114;2022-11-04T13:07:09;16.23;;;4.73;;
18793;SDS011;29610;49.022;12.114;2022-11-04T13:09:47;11.30;;;4.40;;
18793;SDS011;29610;49.022;12.114;2022-11-04T13:12:21;14.20;;;5.10;;
18793;SDS011;29610;49.022;12.114;2022-11-04T13:14:55;10.53;;;4.40;;
18793;SDS011;29610;49.022;12.114;2022-11-04T13:17:31;10.13;;;4.40;;
18793;SDS011;29610;49.022;12.114;2022-11-04T13:20:12;14.60;;;4.63;;
18793;SDS011;29610;49.022;12.114;2022-11-04T13:22:53;16.63;;;6.83;;
18793;SDS011;29610;49.022;12.114;2022-11-04T13:25:29;21.43;;;5.47;;
18793;SDS011;29610;49.022;12.114;2022-11-04T13:28:07;15.97;;;5.90;;
18793;SDS011;29610;49.022;12.114;2022-11-04T13:30:42;15.73;;;6.20;;
18793;SDS011;29610;49.022;12.114;2022-11-04T13:33:24;13.90;;;5.23;;
18793;SDS011;29610;49.022;12.114;2022-11-04T13:36:08;12.87;;;5.07;;
18793;SDS011;29610;49.022;12.114;2022-11-04T13:38:55;13.27;;;4.93;;
18793;SDS011;29610;49.022;12.114;2022-11-04T13:41:43;16.27;;;4.73;;
18793;SDS011;29610;49.022;12.114;2022-11-04T13:44:56;10.80;;;5.00;;
18793;SDS011;29610;49.022;12.114;2022-11-04T13:47:34;11.27;;;4.73;;
18793;SDS011;29610;49.022;12.114;2022-11-04T13:50:15;13.60;;;5.13;;
18793;SDS011;29610;49.022;12.114;2022-11-04T13:53:01;26.00;;;6.03;;
18793;SDS011;29610;49.022;12.114;2022-11-04T13:55:32;13.33;;;5.30;;
18793;SDS011;29610;49.022;12.114;2022-11-04T13:58:03;15.70;;;6.07;;
18793;SDS011;29610;49.022;12.114;2022-11-04T14:00:34;21.50;;;5.33;;
18793;SDS011;29610;49.022;12.114;2022-11-04T14:09:30;11.30;;;3.87;;
18793;SDS011;29610;49.022;12.114;2022-11-04T14:12:28;12.57;;;4.93;;
18793;SDS011;29610;49.022;12.114;2022-11-04T14:15:03;35.57;;;4.87;;
18793;SDS011;29610;49.022;12.114;2022-11-04T14:18:00;22.97;;;11.03;;
18793;SDS011;29610;49.022;12.114;2022-11-04T14:20:37;18.60;;;6.40;;
18793;SDS011;29610;49.022;12.114;2022-11-04T14:23:32;11.20;;;4.67;;
18793;SDS011;29610;49.022;12.114;2022-11-04T14:26:05;13.17;;;4.40;;
18793;SDS011;29610;49.022;12.114;2022-11-04T14:28:38;11.57;;;4.90;;
18793;SDS011;29610;49.022;12.114;2022-11-04T14:31:12;13.03;;;5.87;;
18793;SDS011;29610;49.022;12.114;2022-11-04T14:34:01;11.37;;;4.83;;
18793;SDS011;29610;49.022;12.114;2022-11-04T14:36:34;21.70;;;6.87;;
18793;SDS011;29610;49.022;12.114;2022-11-04T14:39:06;11.53;;;5.80;;
18793;SDS011;29610;49.022;12.114;2022-11-04T14:41:56;11.77;;;5.83;;
18793;SDS011;29610;49.022;12.114;2022-11-04T14:44:28;13.70;;;5.77;;
18793;SDS011;29610;49.022;12.114;2022-11-04T14:47:14;14.07;;;5.63;;
18793;SDS011;29610;49.022;12.114;2022-11-04T14:49:47;13.90;;;5.90;;
18793;SDS011;29610;49.022;12.114;2022-11-04T14:52:20;14.93;;;6.53;;
18793;SDS011;29610;49.022;12.114;2022-11-04T14:54:55;15.70;;;5.47;;
18793;SDS011;29610;49.022;12.114;2022-11-04T14:57:34;14.73;;;5.67;;
18793;SDS011;29610;49.022;12.114;2022-11-04T15:00:26;13.30;;;4.97;;
18793;SDS011;29610;49.022;12.114;2022-11-04T15:03:09;11.20;;;5.40;;
18793;SDS011;29610;49.022;12.114;2022-11-04T15:06:04;18.43;;;6.53;;
18793;SDS011;29610;49.022;12.114;2022-11-04T15:08:39;13.27;;;6.03;;
18793;SDS011;29610;49.022;12.114;2022-11-04T15:11:13;14.93;;;5.83;;
18793;SDS011;29610;49.022;12.114;2022-11-04T15:14:11;13.90;;;5.57;;
18793;SDS011;29610;49.022;12.114;2022-11-04T15:16:44;13.60;;;7.10;;
18793;SDS011;29610;49.022;12.114;2022-11-04T15:19:17;16.40;;;6.17;;
18793;SDS011;29610;49.022;12.114;2022-11-04T15:21:56;17.23;;;6.83;;
18793;SDS011;29610;49.022;12.114;2022-11-04T15:24:27;14.70;;;6.90;;
18793;SDS011;29610;49.022;12.114;2022-11-04T15:26:58;18.93;;;7.43;;
18793;SDS011;29610;49.022;12.114;2022-11-04T15:29:32;17.90;;;7.77;;
18793;SDS011;29610;49.022;12.114;2022-11-04T15:32:02;14.37;;;6.50;;
18793;SDS011;29610;49.022;12.114;2022-11-04T15:34:32;19.77;;;7.33;;